createdAt,value
2023-01-23T00:01:40.056Z,24.67
2023-01-23T00:04:07.959Z,25.67
2023-01-23T00:06:35.887Z,22.47
2023-01-23T00:09:04.293Z,21.07
2023-01-23T00:11:34.087Z,24.07
2023-01-23T00:14:03.854Z,25.10
2023-01-23T00:16:33.571Z,27.57
2023-01-23T00:19:01.647Z,26.87
2023-01-23T00:21:31.157Z,24.30
2023-01-23T00:24:01.381Z,32.30
2023-01-23T00:26:32.615Z,23.70
2023-01-23T00:29:02.483Z,25.47
2023-01-23T00:31:37.106Z,27.63
2023-01-23T00:34:07.317Z,25.10
2023-01-23T00:36:36.677Z,31.40
2023-01-23T00:39:06.936Z,25.50
2023-01-23T00:41:35.210Z,26.73
2023-01-23T00:44:04.480Z,23.37
2023-01-23T00:46:32.352Z,26.73
2023-01-23T00:49:00.323Z,23.10
2023-01-23T00:51:28.307Z,24.33
2023-01-23T00:53:56.248Z,23.00
2023-01-23T00:56:24.227Z,28.50
2023-01-23T00:58:52.093Z,24.07
2023-01-23T01:01:22.622Z,25.63
2023-01-23T01:03:51.114Z,29.50
2023-01-23T01:06:18.887Z,23.53
2023-01-23T01:08:49.305Z,30.93
2023-01-23T01:11:17.178Z,24.93
2023-01-23T01:13:45.513Z,30.87
2023-01-23T01:16:13.949Z,28.60
2023-01-23T01:18:43.159Z,29.30
2023-01-23T01:21:13.610Z,25.33
2023-01-23T01:23:42.452Z,26.17
2023-01-23T01:26:10.984Z,18.07
2023-01-23T01:28:40.361Z,22.33
2023-01-23T01:31:11.133Z,21.37
2023-01-23T01:33:39.196Z,25.70
2023-01-23T01:36:11.309Z,27.70
2023-01-23T01:38:39.403Z,28.43
2023-01-23T01:41:08.069Z,26.30
2023-01-23T01:43:36.919Z,25.57
2023-01-23T01:46:14.976Z,24.53
2023-01-23T01:48:48.481Z,26.10
2023-01-23T01:51:24.023Z,25.80
2023-01-23T01:54:00.405Z,21.53
2023-01-23T01:56:30.128Z,28.50
2023-01-23T01:58:59.518Z,21.23
2023-01-23T02:01:28.198Z,24.80
2023-01-23T02:03:56.785Z,21.00
2023-01-23T02:06:26.907Z,19.83
2023-01-23T02:09:01.852Z,21.80
2023-01-23T02:11:29.828Z,24.37
2023-01-23T02:13:57.848Z,26.70
2023-01-23T02:16:29.770Z,21.80
2023-01-23T02:19:01.583Z,28.67
2023-01-23T02:21:30.938Z,23.87
2023-01-23T02:24:19.602Z,25.77
2023-01-23T02:26:48.914Z,24.43
2023-01-23T02:29:19.125Z,19.07
2023-01-23T02:31:47.378Z,21.30
2023-01-23T02:34:15.772Z,23.77
2023-01-23T02:36:48.913Z,19.90
2023-01-23T02:39:18.209Z,23.67
2023-01-23T02:41:49.665Z,26.20
2023-01-23T02:44:19.782Z,22.33
2023-01-23T02:46:47.699Z,26.10
2023-01-23T02:49:15.547Z,23.17
2023-01-23T02:51:43.352Z,25.03
2023-01-23T02:54:11.197Z,23.80
2023-01-23T02:56:39.018Z,24.33
2023-01-23T02:59:30.816Z,24.60
2023-01-23T03:01:58.921Z,27.53
2023-01-23T03:04:26.717Z,23.27
2023-01-23T03:06:54.576Z,26.10
2023-01-23T03:09:23.002Z,20.43
2023-01-23T03:11:52.117Z,24.80
2023-01-23T03:14:23.169Z,24.43
2023-01-23T03:16:53.561Z,25.63
2023-01-23T03:19:23.470Z,27.23
2023-01-23T03:21:51.901Z,24.03
2023-01-23T03:24:20.595Z,26.80
2023-01-23T03:26:50.068Z,27.00
2023-01-23T03:29:36.704Z,26.00
2023-01-23T03:32:06.701Z,24.03
2023-01-23T03:34:34.885Z,25.80
2023-01-23T03:37:03.414Z,25.37
2023-01-23T03:39:48.961Z,30.53
2023-01-23T03:42:17.111Z,24.87
2023-01-23T03:44:45.006Z,24.37
2023-01-23T03:47:14.145Z,22.20
2023-01-23T03:49:41.962Z,23.07
2023-01-23T03:52:09.822Z,25.97
2023-01-23T03:54:37.763Z,26.73
2023-01-23T03:57:05.658Z,23.50
2023-01-23T03:59:33.682Z,25.00
2023-01-23T04:02:04.790Z,27.37
2023-01-23T04:04:34.456Z,24.60
2023-01-23T04:07:03.082Z,24.83
2023-01-23T04:09:31.285Z,26.40
2023-01-23T04:12:00.330Z,28.27
2023-01-23T04:14:30.376Z,25.47
2023-01-23T04:16:59.237Z,27.50
2023-01-23T04:19:26.993Z,24.50
2023-01-23T04:21:56.122Z,27.90
2023-01-23T04:24:24.131Z,24.47
2023-01-23T04:26:52.180Z,26.93
2023-01-23T04:29:20.121Z,26.43
2023-01-23T04:31:48.089Z,25.07
2023-01-23T04:34:15.915Z,28.13
2023-01-23T04:36:43.817Z,26.57
2023-01-23T04:39:12.928Z,22.23
2023-01-23T04:41:40.722Z,24.70
2023-01-23T04:44:24.279Z,24.23
2023-01-23T04:46:54.157Z,25.20
2023-01-23T04:49:23.041Z,29.83
2023-01-23T04:51:51.738Z,27.10
2023-01-23T04:54:22.310Z,26.03
2023-01-23T04:56:50.317Z,25.60
2023-01-23T04:59:18.184Z,24.13
2023-01-23T05:01:46.391Z,25.10
2023-01-23T05:04:14.236Z,24.90
2023-01-23T05:06:42.093Z,23.17
2023-01-23T05:09:09.992Z,26.07
2023-01-23T05:11:39.127Z,27.43
2023-01-23T05:14:07.131Z,23.57
2023-01-23T05:16:35.025Z,22.73
2023-01-23T05:19:02.966Z,30.80
2023-01-23T05:21:30.920Z,23.70
2023-01-23T05:23:58.714Z,24.73
2023-01-23T05:26:26.574Z,23.07
2023-01-23T05:28:55.798Z,22.63
2023-01-23T05:31:23.790Z,26.20
2023-01-23T05:33:51.625Z,28.93
2023-01-23T05:36:19.402Z,25.50
2023-01-23T05:38:47.304Z,28.63
2023-01-23T05:41:15.172Z,25.63
2023-01-23T05:43:43.856Z,26.73
2023-01-23T05:46:13.046Z,27.30
2023-01-23T05:48:40.844Z,27.20
2023-01-23T05:51:08.837Z,27.20
2023-01-23T05:53:36.631Z,23.07
2023-01-23T05:56:07.373Z,23.13
2023-01-23T05:58:35.265Z,26.83
2023-01-23T06:01:03.480Z,22.90
2023-01-23T06:03:33.064Z,24.37
2023-01-23T06:06:02.122Z,24.80
2023-01-23T06:08:30.203Z,23.40
2023-01-23T06:10:59.374Z,23.63
2023-01-23T06:13:27.694Z,31.03
2023-01-23T06:15:55.802Z,23.33
2023-01-23T06:18:23.851Z,24.47
2023-01-23T06:20:58.878Z,24.13
2023-01-23T06:23:26.726Z,24.67
2023-01-23T06:25:54.562Z,28.00
2023-01-23T06:28:22.347Z,21.30
2023-01-23T06:30:50.416Z,27.33
2023-01-23T06:33:18.514Z,26.50
2023-01-23T06:35:46.393Z,27.73
2023-01-23T06:38:15.550Z,26.70
2023-01-23T06:40:44.552Z,30.27
2023-01-23T06:43:12.301Z,28.03
2023-01-23T06:45:40.113Z,31.43
2023-01-23T06:48:08.118Z,33.33
2023-01-23T06:50:35.869Z,29.03
2023-01-23T06:53:03.643Z,30.67
2023-01-23T06:55:32.837Z,22.73
2023-01-23T06:58:01.000Z,26.13
2023-01-23T07:00:28.996Z,31.60
2023-01-23T07:02:58.932Z,29.10
2023-01-23T07:05:26.773Z,39.80
2023-01-23T07:07:54.572Z,34.83
2023-01-23T07:10:22.965Z,32.30
2023-01-23T07:12:52.293Z,41.57
2023-01-23T07:15:20.064Z,31.90
2023-01-23T07:17:47.884Z,34.67
2023-01-23T07:20:15.759Z,36.80
2023-01-23T07:22:43.634Z,30.00
2023-01-23T07:25:11.490Z,30.43
2023-01-23T07:27:42.464Z,33.27
2023-01-23T07:30:13.150Z,34.87
2023-01-23T07:32:40.998Z,34.60
2023-01-23T07:35:10.220Z,37.30
2023-01-23T07:37:38.107Z,40.93
2023-01-23T07:40:06.879Z,43.73
2023-01-23T07:42:34.676Z,37.87
2023-01-23T07:45:02.499Z,35.53
2023-01-23T07:47:31.694Z,34.60
2023-01-23T07:49:59.415Z,29.70
2023-01-23T07:52:27.290Z,33.87
2023-01-23T07:54:55.126Z,35.73
2023-01-23T07:57:22.893Z,33.10
2023-01-23T07:59:50.652Z,34.67
2023-01-23T08:02:18.542Z,33.37
2023-01-23T08:04:47.693Z,30.27
2023-01-23T08:07:15.451Z,33.10
2023-01-23T08:09:43.282Z,32.87
2023-01-23T08:12:12.313Z,32.57
2023-01-23T08:14:40.754Z,29.93
2023-01-23T08:17:08.527Z,29.93
2023-01-23T08:19:36.282Z,27.77
2023-01-23T08:22:05.376Z,26.97
2023-01-23T08:24:33.229Z,30.73
2023-01-23T08:27:00.999Z,23.17
2023-01-23T08:29:28.754Z,22.73
2023-01-23T08:31:56.593Z,30.30
2023-01-23T08:34:24.896Z,27.40
2023-01-23T08:36:52.659Z,27.10
2023-01-23T08:39:21.858Z,31.83
2023-01-23T08:41:49.625Z,24.20
2023-01-23T08:44:17.382Z,28.17
2023-01-23T08:46:46.709Z,25.83
2023-01-23T08:49:14.600Z,27.47
2023-01-23T08:51:42.428Z,26.97
2023-01-23T08:54:10.159Z,22.53
2023-01-23T08:56:40.844Z,23.23
2023-01-23T08:59:09.010Z,25.80
2023-01-23T09:01:36.815Z,23.17
2023-01-23T09:04:04.793Z,33.47
2023-01-23T09:06:32.542Z,30.50
2023-01-23T09:09:00.320Z,27.93
2023-01-23T09:11:28.111Z,23.67
2023-01-23T09:13:57.853Z,34.27
2023-01-23T09:16:25.709Z,23.57
2023-01-23T09:18:55.312Z,25.00
2023-01-23T09:21:23.074Z,27.43
2023-01-23T09:23:50.821Z,23.37
2023-01-23T09:26:19.971Z,25.57
2023-01-23T09:28:47.913Z,24.77
2023-01-23T09:31:17.589Z,26.40
2023-01-23T09:33:45.524Z,22.50
2023-01-23T09:36:13.699Z,24.20
2023-01-23T09:38:41.509Z,30.93
2023-01-23T09:41:12.618Z,27.13
2023-01-23T09:43:46.321Z,24.33
2023-01-23T09:46:21.461Z,28.83
2023-01-23T09:48:53.710Z,29.50
2023-01-23T09:51:26.546Z,26.60
2023-01-23T09:53:58.147Z,29.23
2023-01-23T09:56:31.776Z,27.60
2023-01-23T09:59:04.989Z,26.80
2023-01-23T10:01:34.203Z,32.53
2023-01-23T10:04:03.060Z,27.33
2023-01-23T10:06:33.241Z,24.40
2023-01-23T10:09:27.275Z,30.50
2023-01-23T10:12:02.545Z,26.83
2023-01-23T10:15:03.165Z,25.30
2023-01-23T10:17:40.094Z,26.90
2023-01-23T10:20:33.018Z,21.70
2023-01-23T10:23:08.811Z,24.20
2023-01-23T10:25:40.875Z,27.43
2023-01-23T10:28:30.994Z,28.00
2023-01-23T10:31:02.132Z,24.97
2023-01-23T10:33:38.302Z,28.50
2023-01-23T10:36:23.712Z,32.10
2023-01-23T10:39:01.249Z,25.60
2023-01-23T10:41:29.071Z,21.27
2023-01-23T10:43:57.976Z,22.43
2023-01-23T10:46:32.669Z,21.13
2023-01-23T10:49:02.835Z,20.17
2023-01-23T10:51:36.418Z,25.63
2023-01-23T10:54:16.992Z,26.83
2023-01-23T10:56:58.121Z,23.90
2023-01-23T10:59:32.468Z,20.63
2023-01-23T11:02:20.200Z,25.40
2023-01-23T11:04:52.631Z,24.33
2023-01-23T11:07:22.744Z,24.93
2023-01-23T11:09:56.770Z,23.97
2023-01-23T11:12:26.194Z,26.63
2023-01-23T11:15:13.396Z,27.33
2023-01-23T11:17:43.429Z,24.23
2023-01-23T11:20:26.392Z,22.27
2023-01-23T11:23:03.727Z,23.80
2023-01-23T11:25:33.478Z,23.50
2023-01-23T11:28:03.089Z,26.03
2023-01-23T11:30:45.699Z,25.30
2023-01-23T11:33:18.070Z,26.73
2023-01-23T11:35:55.716Z,20.70
2023-01-23T11:38:30.876Z,25.20
2023-01-23T11:40:59.389Z,22.70
2023-01-23T11:43:27.379Z,20.23
2023-01-23T11:46:09.268Z,22.07
2023-01-23T11:48:50.424Z,26.03
2023-01-23T11:51:24.280Z,25.40
2023-01-23T11:54:04.597Z,22.00
2023-01-23T11:56:57.121Z,22.10
2023-01-23T11:59:52.953Z,25.70
2023-01-23T12:02:58.516Z,24.07
2023-01-23T12:06:19.660Z,28.43
2023-01-23T12:08:57.387Z,20.40
2023-01-23T12:11:27.684Z,24.73
2023-01-23T12:14:05.117Z,23.47
2023-01-23T12:16:47.971Z,22.20
2023-01-23T12:19:28.406Z,21.27
2023-01-23T12:22:03.473Z,21.83
2023-01-23T12:24:49.072Z,25.13
2023-01-23T12:27:22.586Z,22.30
2023-01-23T12:30:13.518Z,25.80
2023-01-23T12:32:55.334Z,23.37
2023-01-23T12:35:36.664Z,22.03
2023-01-23T12:38:30.090Z,25.23
2023-01-23T12:41:16.041Z,24.57
2023-01-23T12:43:51.860Z,28.80
2023-01-23T12:46:25.966Z,20.27
2023-01-23T12:49:00.926Z,24.60
2023-01-23T12:51:34.878Z,24.43
2023-01-23T12:54:07.638Z,22.10
2023-01-23T12:56:39.665Z,19.03
2023-01-23T12:59:14.054Z,18.67
2023-01-23T13:01:56.788Z,23.90
2023-01-23T13:04:38.035Z,23.53
2023-01-23T13:07:21.893Z,22.17
2023-01-23T13:10:06.429Z,19.70
2023-01-23T13:12:35.886Z,21.20
2023-01-23T13:15:38.799Z,21.50
2023-01-23T13:18:23.340Z,22.83
2023-01-23T13:21:16.187Z,21.10
2023-01-23T13:23:44.147Z,24.17
2023-01-23T13:26:36.192Z,22.00
2023-01-23T13:29:07.485Z,26.47
2023-01-23T13:31:40.015Z,18.47
2023-01-23T13:34:39.450Z,21.53
2023-01-23T13:37:55.417Z,19.33
2023-01-23T13:40:24.954Z,21.30
2023-01-23T13:42:52.886Z,18.00
2023-01-23T13:45:35.743Z,23.20
2023-01-23T14:20:20.007Z,21.60
2023-01-23T14:22:48.116Z,20.20
2023-01-23T14:25:18.298Z,20.63
2023-01-23T14:27:54.702Z,23.70
2023-01-23T14:30:26.510Z,23.13
2023-01-23T14:32:56.379Z,18.43
2023-01-23T14:35:27.211Z,28.20
2023-01-23T14:38:04.035Z,27.13
2023-01-23T14:40:46.667Z,20.53
2023-01-23T14:43:19.709Z,18.30
2023-01-23T14:45:50.501Z,21.90
2023-01-23T14:48:22.401Z,21.40
2023-01-23T14:50:50.254Z,16.47
2023-01-23T14:53:18.474Z,22.03
2023-01-23T14:55:49.586Z,20.53
2023-01-23T14:58:23.479Z,20.10
2023-01-23T15:00:54.333Z,29.50
2023-01-23T15:03:44.410Z,27.13
2023-01-23T15:06:15.735Z,20.13
2023-01-23T15:08:43.724Z,20.03
2023-01-23T15:11:14.704Z,18.43
2023-01-23T15:13:46.638Z,20.03
2023-01-23T15:16:18.204Z,20.37
2023-01-23T15:18:58.464Z,20.47
2023-01-23T15:21:29.372Z,21.60
2023-01-23T15:24:18.346Z,20.20
2023-01-23T15:27:04.450Z,20.90
2023-01-23T15:29:33.425Z,19.50
2023-01-23T15:32:01.924Z,21.93
2023-01-23T15:34:33.546Z,22.47
2023-01-23T15:37:08.494Z,22.83
2023-01-23T15:39:39.648Z,17.97
2023-01-23T15:42:27.425Z,22.43
2023-01-23T15:44:55.565Z,19.33
2023-01-23T15:47:23.330Z,23.80
2023-01-23T15:49:52.460Z,23.50
2023-01-23T15:52:23.215Z,22.23
2023-01-23T15:54:53.676Z,28.57
2023-01-23T15:57:21.599Z,23.70
2023-01-23T15:59:49.397Z,23.00
2023-01-23T16:02:29.944Z,29.97
2023-01-23T16:05:00.998Z,33.93
2023-01-23T16:07:34.174Z,27.40
2023-01-23T16:10:03.686Z,27.90
2023-01-23T16:12:32.681Z,25.73
2023-01-23T16:15:00.462Z,28.17
2023-01-23T16:17:28.225Z,34.33
2023-01-23T16:19:55.980Z,33.30
2023-01-23T16:22:29.037Z,24.33
2023-01-23T16:24:58.044Z,31.90
2023-01-23T16:27:27.390Z,26.67
2023-01-23T16:29:56.314Z,26.23
2023-01-23T16:32:24.944Z,28.17
2023-01-23T16:34:52.868Z,26.13
2023-01-23T16:37:20.716Z,26.33
2023-01-23T16:39:49.844Z,20.70
2023-01-23T16:42:23.115Z,24.50
2023-01-23T16:44:51.364Z,26.20
2023-01-23T16:47:19.252Z,27.10
2023-01-23T16:49:52.595Z,27.03
2023-01-23T16:52:22.249Z,25.57
2023-01-23T16:54:53.015Z,24.23
2023-01-23T16:57:21.990Z,25.07
2023-01-23T16:59:50.807Z,23.77
2023-01-23T17:02:23.338Z,31.80
2023-01-23T17:04:51.303Z,24.00
2023-01-23T17:07:20.302Z,24.57
2023-01-23T17:09:49.161Z,27.43
2023-01-23T17:12:23.023Z,34.27
2023-01-23T17:14:52.357Z,30.00
2023-01-23T17:17:27.692Z,32.13
2023-01-23T17:19:55.689Z,27.77
2023-01-23T17:22:25.907Z,25.80
2023-01-23T17:24:54.008Z,30.40
2023-01-23T17:27:23.393Z,30.73
2023-01-23T17:29:51.153Z,30.50
2023-01-23T17:32:27.745Z,25.13
2023-01-23T17:34:55.744Z,34.00
2023-01-23T17:37:24.341Z,28.20
2023-01-23T17:39:52.304Z,35.20
2023-01-23T17:42:21.774Z,30.00
2023-01-23T17:44:51.054Z,34.60
2023-01-23T17:47:19.318Z,33.83
2023-01-23T17:49:51.388Z,28.60
2023-01-23T17:52:21.577Z,35.57
2023-01-23T17:54:49.552Z,32.47
2023-01-23T17:57:17.281Z,30.87
2023-01-23T17:59:45.166Z,34.47
2023-01-23T18:02:27.322Z,33.67
2023-01-23T18:04:55.301Z,37.03
2023-01-23T18:07:23.197Z,29.13
2023-01-23T18:09:52.295Z,36.23
2023-01-23T18:12:29.614Z,28.40
2023-01-23T18:15:06.284Z,27.47
2023-01-23T18:17:44.645Z,38.83
2023-01-23T18:20:20.576Z,29.33
2023-01-23T18:22:49.151Z,33.60
2023-01-23T18:25:19.308Z,33.43
2023-01-23T18:27:50.801Z,34.70
2023-01-23T18:30:24.899Z,28.33
2023-01-23T18:33:12.023Z,34.03
2023-01-23T18:35:59.209Z,37.07
2023-01-23T18:38:34.174Z,32.63
2023-01-23T18:41:11.213Z,30.77
2023-01-23T18:43:40.781Z,39.07
2023-01-23T18:46:13.223Z,32.50
2023-01-23T18:48:44.940Z,41.53
2023-01-23T18:51:25.107Z,33.63
2023-01-23T18:53:59.822Z,33.37
2023-01-23T18:56:35.305Z,32.40
2023-01-23T18:59:14.165Z,36.13
2023-01-23T19:01:51.969Z,35.97
2023-01-23T19:04:30.382Z,35.87
2023-01-23T19:06:58.929Z,39.20
2023-01-23T19:09:28.305Z,37.30
2023-01-23T19:12:24.210Z,32.70
2023-01-23T19:15:07.620Z,31.00
2023-01-23T19:17:44.284Z,42.87
2023-01-23T19:20:23.336Z,35.10
2023-01-23T19:23:02.581Z,38.27
2023-01-23T19:25:30.836Z,45.93
2023-01-23T19:28:00.704Z,34.57
2023-01-23T19:30:29.131Z,41.37
2023-01-23T19:32:56.905Z,35.23
2023-01-23T19:35:26.223Z,42.13
2023-01-23T19:37:53.949Z,36.40
2023-01-23T19:40:21.864Z,35.63
2023-01-23T19:42:58.656Z,32.03
2023-01-23T19:45:33.861Z,37.03
2023-01-23T19:48:01.653Z,33.30
2023-01-23T19:50:30.919Z,34.50
2023-01-23T19:53:00.119Z,31.73
2023-01-23T19:55:30.379Z,31.67
2023-01-23T19:57:58.714Z,35.53
2023-01-23T20:00:27.774Z,44.53
2023-01-23T20:02:55.544Z,31.20
2023-01-23T20:05:23.910Z,29.43
2023-01-23T20:07:53.993Z,34.33
2023-01-23T20:10:22.300Z,30.03
2023-01-23T20:12:52.486Z,42.83
2023-01-23T20:15:21.946Z,38.50
2023-01-23T20:17:50.355Z,30.43
2023-01-23T20:20:19.442Z,33.57
2023-01-23T20:22:47.250Z,35.67
2023-01-23T20:25:17.815Z,36.00
2023-01-23T20:27:46.002Z,40.40
2023-01-23T20:30:16.576Z,31.67
2023-01-23T20:32:44.777Z,29.50
2023-01-23T20:35:12.958Z,31.07
2023-01-23T20:37:40.733Z,31.53
2023-01-23T20:40:11.294Z,29.83
2023-01-23T20:42:41.232Z,34.87
2023-01-23T20:45:09.818Z,37.60
2023-01-23T20:47:38.604Z,36.20
2023-01-23T20:50:07.046Z,29.90
2023-01-23T20:52:52.259Z,29.67
2023-01-23T20:55:20.512Z,32.90
2023-01-23T20:58:07.416Z,33.90
2023-01-23T21:00:35.170Z,26.70
2023-01-23T21:03:03.039Z,37.93
2023-01-23T21:05:30.842Z,30.17
2023-01-23T21:07:58.687Z,31.07
2023-01-23T21:10:26.651Z,28.10
2023-01-23T21:12:55.835Z,34.83
2023-01-23T21:15:24.032Z,33.33
2023-01-23T21:17:51.941Z,35.93
2023-01-23T21:20:20.036Z,30.60
2023-01-23T21:22:47.998Z,31.50
2023-01-23T21:25:15.935Z,30.73
2023-01-23T21:27:43.692Z,34.90
2023-01-23T21:30:13.759Z,30.10
2023-01-23T21:32:41.697Z,38.90
2023-01-23T21:35:09.800Z,30.27
2023-01-23T21:37:38.057Z,30.57
2023-01-23T21:40:07.193Z,32.70
2023-01-23T21:42:34.987Z,29.40
2023-01-23T21:45:02.748Z,36.17
2023-01-23T21:47:31.900Z,34.20
2023-01-23T21:49:59.758Z,34.13
2023-01-23T21:52:29.530Z,30.63
2023-01-23T21:54:57.874Z,25.50
2023-01-23T21:57:25.664Z,32.70
2023-01-23T22:00:07.433Z,34.13
2023-01-23T22:02:36.577Z,28.20
2023-01-23T22:05:04.488Z,30.80
2023-01-23T22:07:32.378Z,37.87
2023-01-23T22:10:00.203Z,32.07
2023-01-23T22:12:28.812Z,32.20
2023-01-23T22:14:56.737Z,31.50
2023-01-23T22:17:24.784Z,33.67
2023-01-23T22:19:53.985Z,30.40
2023-01-23T22:22:21.752Z,33.93
2023-01-23T22:24:49.581Z,42.93
2023-01-23T22:27:17.374Z,31.87
2023-01-23T22:29:45.261Z,36.97
2023-01-23T22:32:13.120Z,30.30
2023-01-23T22:34:40.897Z,33.67
2023-01-23T22:37:10.033Z,29.10
2023-01-23T22:39:37.802Z,32.97
2023-01-23T22:42:05.881Z,37.50
2023-01-23T22:44:33.690Z,38.13
2023-01-23T22:47:01.516Z,33.63
2023-01-23T22:49:29.381Z,35.37
2023-01-23T22:51:57.209Z,31.97
2023-01-23T22:54:26.428Z,30.43
2023-01-23T22:56:54.193Z,35.90
2023-01-23T23:01:57.320Z,41.83
2023-01-23T23:04:25.015Z,31.10
2023-01-23T23:06:52.825Z,39.33
2023-01-23T23:09:20.574Z,48.73
2023-01-23T23:11:51.663Z,37.10
2023-01-23T23:14:19.616Z,35.20
2023-01-23T23:16:47.386Z,36.27
2023-01-23T23:19:15.209Z,33.53
2023-01-23T23:21:42.974Z,34.77
2023-01-23T23:24:13.935Z,37.10
2023-01-23T23:26:42.082Z,38.00
2023-01-23T23:29:11.229Z,40.00
2023-01-23T23:31:39.161Z,41.97
2023-01-23T23:34:07.078Z,37.83
2023-01-23T23:36:35.109Z,40.13
2023-01-23T23:39:03.187Z,40.73
2023-01-23T23:41:30.995Z,38.03
2023-01-23T23:43:58.781Z,42.07
2023-01-23T23:46:28.334Z,38.27
2023-01-23T23:48:56.211Z,37.33
2023-01-23T23:51:26.422Z,35.93
2023-01-23T23:53:55.477Z,40.17
2023-01-23T23:56:24.647Z,36.60
2023-01-23T23:58:52.629Z,40.53
